Time;durP1;ratioP1;P1;durP2;ratioP2;P2;SDS_P1;SDS_P2;PMS_P1;PMS_P2;Temp;Humidity;BMP_temperature;BMP_pressure;BME280_temperature;BME280_humidity;BME280_pressure;Samples;Min_cycle;Max_cycle;Signal;HPM_P1;HPM_P2
2022/06/21 00:00:18;;;;;;;18.52;6.82;;;10.00;99.90;;;;;;4927191;29;20175;-73
2022/06/21 00:02:45;;;;;;;13.80;5.75;;;10.10;99.90;;;;;;4925922;29;20154;-73
2022/06/21 00:05:25;;;;;;;10.35;5.35;;;10.10;99.90;;;;;;4926025;29;20122;-73
2022/06/21 00:07:50;;;;;;;12.90;5.95;;;10.10;99.90;;;;;;4925222;29;20028;-73
2022/06/21 00:10:19;;;;;;;11.65;5.85;;;10.10;99.90;;;;;;4926512;29;20034;-72
2022/06/21 00:12:45;;;;;;;16.85;6.15;;;10.10;99.90;;;;;;4926853;29;20031;-72
2022/06/21 00:15:11;;;;;;;20.33;7.50;;;10.00;99.90;;;;;;4919745;29;20060;-73
2022/06/21 00:17:43;;;;;;;13.82;6.25;;;10.00;99.90;;;;;;4924196;29;20187;-73
2022/06/21 00:20:20;;;;;;;16.27;6.28;;;9.90;99.90;;;;;;4925762;29;20032;-73
2022/06/21 00:22:47;;;;;;;15.15;7.57;;;9.90;99.90;;;;;;4925665;29;20031;-73
2022/06/21 00:25:23;;;;;;;14.50;6.65;;;9.90;99.90;;;;;;4923598;29;20234;-73
2022/06/21 00:27:49;;;;;;;16.15;6.00;;;9.80;99.90;;;;;;4925126;29;20028;-73
2022/06/21 00:30:16;;;;;;;13.00;6.35;;;9.80;99.90;;;;;;4925615;29;20035;-73
2022/06/21 00:32:42;;;;;;;14.43;6.90;;;9.70;99.90;;;;;;4919856;29;20039;-73
2022/06/21 00:35:16;;;;;;;14.82;6.03;;;9.70;99.90;;;;;;4925468;29;20039;-73
2022/06/21 00:37:42;;;;;;;9.82;5.45;;;9.70;99.90;;;;;;4924367;29;20052;-73
2022/06/21 00:40:23;;;;;;;15.60;7.55;;;9.60;99.90;;;;;;4925854;29;20036;-73
2022/06/21 00:42:57;;;;;;;19.02;7.10;;;9.60;99.90;;;;;;4923052;29;20039;-73
2022/06/21 00:45:55;;;;;;;14.40;6.35;;;9.60;99.90;;;;;;4926176;29;20063;-72
2022/06/21 00:48:31;;;;;;;10.68;6.70;;;9.60;99.90;;;;;;4923709;29;20427;-73
2022/06/21 00:51:06;;;;;;;10.55;5.57;;;9.50;99.90;;;;;;4924760;29;20036;-72
2022/06/21 00:53:36;;;;;;;10.10;5.35;;;9.50;99.90;;;;;;4924408;29;20036;-73
2022/06/21 00:56:16;;;;;;;16.20;5.90;;;9.40;99.90;;;;;;4923582;29;20083;-73
2022/06/21 00:58:42;;;;;;;14.55;6.28;;;9.30;99.90;;;;;;4922773;29;20043;-73
2022/06/21 01:01:25;;;;;;;16.58;7.38;;;9.30;99.90;;;;;;4925756;29;20036;-73
2022/06/21 01:03:56;;;;;;;17.20;6.55;;;9.30;99.90;;;;;;4925325;29;20027;-72
2022/06/21 01:06:42;;;;;;;15.85;7.05;;;9.30;99.90;;;;;;4916044;29;20401;-73
2022/06/21 01:09:36;;;;;;;18.48;6.35;;;9.30;99.90;;;;;;4905729;29;20603;-73
2022/06/21 01:12:12;;;;;;;14.02;6.47;;;9.40;99.90;;;;;;4906748;29;20028;-73
2022/06/21 01:14:43;;;;;;;12.25;6.22;;;9.30;99.90;;;;;;4922597;29;20036;-73
2022/06/21 01:17:11;;;;;;;11.50;5.50;;;9.30;99.90;;;;;;4924636;29;20039;-73
2022/06/21 01:19:48;;;;;;;8.98;5.60;;;9.20;99.90;;;;;;4922830;29;20054;-73
2022/06/21 01:22:21;;;;;;;7.57;5.10;;;9.00;99.90;;;;;;4920944;29;20424;-73
2022/06/21 01:25:07;;;;;;;17.92;6.45;;;8.90;99.90;;;;;;4906513;29;20059;-73
2022/06/21 01:27:33;;;;;;;14.50;5.72;;;8.90;99.90;;;;;;4910584;29;20036;-73
2022/06/21 01:29:59;;;;;;;11.68;5.40;;;8.90;99.90;;;;;;4925386;29;20399;-73
2022/06/21 01:32:25;;;;;;;13.75;6.50;;;9.00;99.90;;;;;;4922468;29;20028;-73
2022/06/21 01:34:53;;;;;;;13.68;6.32;;;9.00;99.90;;;;;;4923961;29;20106;-72
2022/06/21 01:37:27;;;;;;;13.70;6.10;;;9.00;99.90;;;;;;4922522;29;20397;-73
2022/06/21 01:40:10;;;;;;;15.40;6.20;;;9.10;99.90;;;;;;4924371;29;20027;-72
2022/06/21 01:42:41;;;;;;;17.05;6.13;;;9.10;99.90;;;;;;4919526;29;20115;-73
2022/06/21 01:45:12;;;;;;;13.55;6.70;;;9.00;99.90;;;;;;4924191;29;20060;-72
2022/06/21 01:47:44;;;;;;;17.33;7.05;;;9.00;99.90;;;;;;4925829;29;20491;-73
2022/06/21 01:50:10;;;;;;;15.25;6.63;;;9.00;99.90;;;;;;4922187;29;20028;-73
2022/06/21 01:52:41;;;;;;;11.93;6.47;;;9.00;99.90;;;;;;4925252;29;20039;-73
2022/06/21 01:55:12;;;;;;;12.50;6.03;;;9.00;99.90;;;;;;4924470;29;20023;-73
2022/06/21 01:57:38;;;;;;;16.00;6.38;;;9.00;99.90;;;;;;4913135;29;20035;-73
2022/06/21 02:00:06;;;;;;;13.52;6.00;;;9.00;99.90;;;;;;4923307;29;20034;-73
2022/06/21 02:02:38;;;;;;;13.93;6.40;;;9.00;99.90;;;;;;4924542;29;20115;-73
2022/06/21 02:05:17;;;;;;;8.65;4.97;;;8.80;99.90;;;;;;4926182;29;20426;-72
2022/06/21 02:07:56;;;;;;;9.68;5.35;;;8.80;99.90;;;;;;4926947;29;20102;-73
2022/06/21 02:10:34;;;;;;;16.35;6.70;;;8.70;99.90;;;;;;4926959;29;20381;-73
2022/06/21 02:13:23;;;;;;;16.30;6.25;;;8.80;99.90;;;;;;4926685;29;20491;-73
2022/06/21 02:15:59;;;;;;;17.83;7.05;;;8.90;99.90;;;;;;4916285;29;20060;-73
2022/06/21 02:18:27;;;;;;;18.60;5.82;;;8.90;99.90;;;;;;4916844;29;20103;-73
2022/06/21 02:20:59;;;;;;;10.05;5.55;;;9.00;99.90;;;;;;4926572;29;20031;-73
2022/06/21 02:23:25;;;;;;;17.60;6.53;;;9.00;99.90;;;;;;4928310;29;20102;-72
2022/06/21 02:25:52;;;;;;;16.88;6.35;;;9.00;99.90;;;;;;4926210;29;20685;-73
2022/06/21 02:28:19;;;;;;;14.20;6.25;;;9.00;99.90;;;;;;4927189;29;20036;-73
2022/06/21 02:30:47;;;;;;;16.75;6.38;;;9.00;99.90;;;;;;4924255;29;20671;-73
2022/06/21 02:33:21;;;;;;;16.65;7.03;;;8.90;99.90;;;;;;4925335;29;20086;-73
2022/06/21 02:35:59;;;;;;;17.98;6.88;;;8.80;99.90;;;;;;4927001;29;20495;-73
2022/06/21 02:38:54;;;;;;;17.70;7.03;;;8.80;99.90;;;;;;4926326;29;20114;-73
2022/06/21 02:41:24;;;;;;;11.27;5.15;;;8.80;99.90;;;;;;4928081;29;20619;-73
2022/06/21 02:44:12;;;;;;;15.73;5.07;;;8.70;99.90;;;;;;4914297;29;20028;-72
2022/06/21 02:46:43;;;;;;;11.10;4.70;;;8.50;99.90;;;;;;4925822;29;20032;-73
2022/06/21 02:49:20;;;;;;;9.93;4.88;;;8.40;99.90;;;;;;4927385;29;20023;-73
2022/06/21 02:51:53;;;;;;;8.45;4.75;;;8.30;99.90;;;;;;4926465;29;20039;-72
2022/06/21 02:54:23;;;;;;;9.05;4.97;;;8.20;99.90;;;;;;4927162;29;20042;-73
2022/06/21 02:56:59;;;;;;;8.70;5.13;;;8.10;99.90;;;;;;4926602;29;20396;-73
2022/06/21 02:59:26;;;;;;;8.02;4.57;;;8.00;99.90;;;;;;4926475;29;20521;-73
2022/06/21 03:02:00;;;;;;;10.82;5.30;;;8.00;99.90;;;;;;4924872;29;20063;-72
2022/06/21 03:04:40;;;;;;;14.57;5.53;;;7.90;99.90;;;;;;4915562;29;20040;-72
2022/06/21 03:07:12;;;;;;;10.95;5.35;;;7.90;99.90;;;;;;4917612;29;20039;-73
2022/06/21 03:09:38;;;;;;;9.93;5.30;;;7.90;99.90;;;;;;4926186;29;20031;-72
2022/06/21 03:12:07;;;;;;;12.80;5.82;;;7.90;99.90;;;;;;4927660;29;20583;-72
2022/06/21 03:14:36;;;;;;;12.98;5.70;;;8.00;99.90;;;;;;4924966;29;20034;-73
2022/06/21 03:17:03;;;;;;;10.45;5.85;;;8.00;99.90;;;;;;4924930;29;20051;-72
2022/06/21 03:19:36;;;;;;;11.70;5.13;;;8.00;99.90;;;;;;4922753;29;20042;-73
2022/06/21 03:22:09;;;;;;;12.88;6.85;;;8.10;99.90;;;;;;4925315;29;20171;-73
2022/06/21 03:24:35;;;;;;;15.02;5.25;;;8.00;99.90;;;;;;4925749;29;20067;-72
2022/06/21 03:27:27;;;;;;;11.73;6.07;;;8.00;99.90;;;;;;4914667;29;20111;-73
2022/06/21 03:29:54;;;;;;;9.55;5.40;;;8.00;99.90;;;;;;4912410;29;20036;-73
2022/06/21 03:32:19;;;;;;;9.05;5.50;;;8.00;99.90;;;;;;4923666;29;20039;-72
2022/06/21 03:34:46;;;;;;;11.48;6.10;;;8.00;99.90;;;;;;4924799;29;20036;-73
2022/06/21 03:37:12;;;;;;;10.80;5.32;;;8.00;99.90;;;;;;4926179;29;20039;-73
2022/06/21 03:42:29;;;;;;;7.18;4.43;;;7.90;99.90;;;;;;4926571;29;20047;-72
2022/06/21 03:45:03;;;;;;;8.63;4.68;;;7.90;99.90;;;;;;4925572;29;20122;-73
2022/06/21 03:47:37;;;;;;;11.68;4.93;;;7.90;99.90;;;;;;4923780;29;20455;-72
2022/06/21 03:50:03;;;;;;;4.95;4.00;;;7.80;99.90;;;;;;4925532;29;20031;-73
2022/06/21 03:52:44;;;;;;;10.65;4.03;;;7.70;99.90;;;;;;4925543;29;20032;-73
2022/06/21 03:55:34;;;;;;;8.88;4.05;;;7.70;99.90;;;;;;4913118;29;20028;-73
2022/06/21 03:58:35;;;;;;;9.93;4.30;;;7.60;99.90;;;;;;4925408;29;20149;-73
2022/06/21 04:01:23;;;;;;;11.10;4.72;;;7.50;99.90;;;;;;4924159;29;20036;-72
2022/06/21 04:04:21;;;;;;;8.82;4.68;;;7.60;99.90;;;;;;4924714;29;20036;-73
2022/06/21 04:07:01;;;;;;;10.73;5.10;;;7.70;99.90;;;;;;4918351;29;20055;-73
2022/06/21 04:10:08;;;;;;;12.85;6.20;;;7.80;99.90;;;;;;4912559;29;20031;-73
2022/06/21 04:13:05;;;;;;;10.13;5.47;;;7.90;99.90;;;;;;4923761;29;20048;-73
2022/06/21 04:15:44;;;;;;;10.73;5.75;;;8.10;99.90;;;;;;4887027;29;20098;-73
2022/06/21 04:18:13;;;;;;;11.43;5.15;;;8.20;99.90;;;;;;4922001;29;20039;-72
2022/06/21 04:21:03;;;;;;;14.25;6.53;;;8.20;99.90;;;;;;4926775;29;20566;-72
2022/06/21 04:23:35;;;;;;;11.57;5.35;;;8.30;99.90;;;;;;4924327;29;20431;-73
2022/06/21 04:26:08;;;;;;;10.13;5.10;;;8.30;99.90;;;;;;4925174;29;20630;-73
2022/06/21 04:29:04;;;;;;;7.75;4.82;;;8.40;99.90;;;;;;4925242;29;20087;-72
2022/06/21 04:31:45;;;;;;;10.73;4.75;;;8.40;99.90;;;;;;4920809;29;20059;-73
2022/06/21 04:34:32;;;;;;;10.27;5.32;;;8.50;99.90;;;;;;4921665;29;20040;-73
2022/06/21 04:37:07;;;;;;;8.63;4.70;;;8.50;99.90;;;;;;4909297;29;20452;-73
2022/06/21 04:39:47;;;;;;;8.93;4.72;;;8.60;99.90;;;;;;4924411;29;20047;-73
2022/06/21 04:42:29;;;;;;;9.23;4.55;;;8.60;99.90;;;;;;4924860;29;20036;-72
2022/06/21 04:45:12;;;;;;;7.00;3.97;;;8.70;99.90;;;;;;4925373;29;20118;-73
2022/06/21 04:47:48;;;;;;;8.25;4.28;;;8.70;99.90;;;;;;4923981;29;20488;-73
2022/06/21 04:50:30;;;;;;;7.60;4.60;;;8.80;99.90;;;;;;4921699;29;20028;-72
2022/06/21 04:52:59;;;;;;;;;;;8.80;99.90;;;;;;4919260;29;20028;-73
2022/06/21 04:55:36;;;;;;;8.43;4.65;;;9.00;99.90;;;;;;4925707;29;19915;-73
2022/06/21 04:58:01;;;;;;;8.95;4.60;;;9.10;99.90;;;;;;4922136;29;20036;-72
2022/06/21 05:00:27;;;;;;;7.50;4.38;;;9.20;99.90;;;;;;4916733;29;20036;-72
2022/06/21 05:02:57;;;;;;;9.93;4.63;;;9.40;99.90;;;;;;4915829;29;20035;-72
2022/06/21 05:05:33;;;;;;;11.15;4.40;;;9.50;99.90;;;;;;4924934;29;20107;-73
2022/06/21 05:08:09;;;;;;;7.90;4.60;;;9.70;99.90;;;;;;4924099;29;20060;-72
2022/06/21 05:10:37;;;;;;;8.50;4.65;;;9.80;99.90;;;;;;4925773;29;20036;-72
2022/06/21 05:13:12;;;;;;;7.88;4.20;;;9.90;99.90;;;;;;4921908;29;20872;-73
2022/06/21 05:15:39;;;;;;;12.30;4.72;;;10.00;99.90;;;;;;4925214;29;20052;-73
2022/06/21 05:18:17;;;;;;;9.32;4.18;;;10.20;99.90;;;;;;4923608;29;20035;-73
2022/06/21 05:21:01;;;;;;;10.43;4.85;;;10.30;99.90;;;;;;4915457;29;20028;-73
2022/06/21 05:23:28;;;;;;;8.82;5.18;;;10.40;99.90;;;;;;4916525;29;20785;-73
2022/06/21 05:25:55;;;;;;;11.65;5.22;;;10.50;99.90;;;;;;4912790;29;20043;-73
2022/06/21 05:28:34;;;;;;;9.23;4.68;;;10.60;99.90;;;;;;4910705;29;20115;-72
2022/06/21 05:31:24;;;;;;;9.52;4.60;;;10.80;99.90;;;;;;4922318;29;20032;-73
2022/06/21 05:33:54;;;;;;;10.82;5.30;;;10.90;99.90;;;;;;4925318;29;20082;-73
2022/06/21 05:36:32;;;;;;;14.85;6.00;;;11.10;99.90;;;;;;4924448;29;20035;-72
2022/06/21 05:39:08;;;;;;;12.07;5.05;;;11.20;99.90;;;;;;4916417;29;20027;-73
2022/06/21 05:41:41;;;;;;;13.13;5.57;;;11.20;99.90;;;;;;4923639;29;20024;-73
2022/06/21 05:44:11;;;;;;;9.32;4.88;;;11.20;99.90;;;;;;4920707;29;20035;-73
2022/06/21 05:46:43;;;;;;;11.10;5.55;;;11.30;99.90;;;;;;4915287;29;20529;-73
2022/06/21 05:49:39;;;;;;;12.77;6.28;;;11.40;99.90;;;;;;4916528;29;20036;-73
2022/06/21 05:52:12;;;;;;;10.27;5.82;;;11.50;99.90;;;;;;4916617;29;20044;-73
2022/06/21 05:54:56;;;;;;;10.48;6.25;;;11.60;99.90;;;;;;4919510;29;20027;-72
2022/06/21 05:57:25;;;;;;;12.32;5.95;;;11.70;99.90;;;;;;4916840;29;20496;-73
2022/06/21 05:59:51;;;;;;;21.13;6.28;;;11.90;99.90;;;;;;4923150;29;20031;-72
2022/06/21 06:02:44;;;;;;;14.00;6.60;;;11.90;99.90;;;;;;4921620;29;20059;-72
2022/06/21 06:05:35;;;;;;;10.75;5.55;;;12.00;99.90;;;;;;4916847;29;20035;-73
2022/06/21 06:08:12;;;;;;;17.48;5.65;;;12.00;99.90;;;;;;4920575;29;20046;-73
2022/06/21 06:10:41;;;;;;;10.70;5.45;;;12.10;99.90;;;;;;4917908;29;20027;-73
2022/06/21 06:13:14;;;;;;;10.57;5.80;;;12.20;99.90;;;;;;4917443;29;20040;-73
2022/06/21 06:15:47;;;;;;;15.25;6.32;;;12.30;99.90;;;;;;4914882;29;20063;-73
2022/06/21 06:18:23;;;;;;;9.00;6.22;;;12.30;99.90;;;;;;4925198;29;20051;-73
2022/06/21 06:21:10;;;;;;;18.67;6.65;;;12.40;99.90;;;;;;4922781;29;20594;-73
2022/06/21 06:23:42;;;;;;;10.50;5.68;;;12.40;99.90;;;;;;4922315;29;20071;-73
2022/06/21 06:26:23;;;;;;;11.52;5.50;;;12.50;99.90;;;;;;4921118;29;20036;-73
2022/06/21 06:29:04;;;;;;;9.60;4.78;;;12.50;99.90;;;;;;4908617;29;20028;-73
2022/06/21 06:32:05;;;;;;;8.07;5.20;;;12.60;99.90;;;;;;4914120;29;20525;-73
2022/06/21 06:34:36;;;;;;;10.23;4.78;;;12.70;99.90;;;;;;4914892;29;20119;-73
2022/06/21 06:37:11;;;;;;;677.28;436.35;;;12.80;99.90;;;;;;4915009;29;20047;-73
2022/06/21 06:39:37;;;;;;;85.28;45.60;;;12.80;99.90;;;;;;4915449;29;20039;-73
2022/06/21 06:42:15;;;;;;;25.67;14.88;;;12.90;99.90;;;;;;4916852;29;20114;-73
2022/06/21 06:44:59;;;;;;;10.90;6.45;;;12.90;99.90;;;;;;4910375;29;20522;-73
2022/06/21 06:47:40;;;;;;;10.35;5.95;;;12.90;99.90;;;;;;4910570;29;20091;-73
2022/06/21 06:50:25;;;;;;;11.47;6.00;;;12.90;99.90;;;;;;4914663;29;20529;-73
2022/06/21 06:53:01;;;;;;;9.23;5.50;;;12.90;99.90;;;;;;4912139;29;20047;-73
2022/06/21 06:55:35;;;;;;;14.02;6.28;;;13.10;99.90;;;;;;4917575;29;20397;-73
2022/06/21 06:58:10;;;;;;;10.93;6.05;;;13.30;99.90;;;;;;4915495;29;20028;-73
2022/06/21 07:00:42;;;;;;;12.30;6.40;;;13.50;99.90;;;;;;4924657;29;20507;-72
2022/06/21 07:03:18;;;;;;;15.10;5.63;;;13.60;99.90;;;;;;4918360;29;20081;-73
2022/06/21 07:05:57;;;;;;;13.75;6.57;;;13.90;99.90;;;;;;4916910;29;20487;-73
2022/06/21 07:08:43;;;;;;;14.77;6.28;;;14.20;99.90;;;;;;4924368;29;20023;-73
2022/06/21 07:11:24;;;;;;;11.75;6.90;;;14.30;99.90;;;;;;4917788;29;20027;-73
2022/06/21 07:13:52;;;;;;;8.10;5.13;;;14.60;99.90;;;;;;4919004;29;20447;-73
2022/06/21 07:16:22;;;;;;;11.85;4.93;;;14.70;99.90;;;;;;4922203;29;20491;-73
2022/06/21 07:18:50;;;;;;;13.20;6.18;;;14.90;99.90;;;;;;4914141;29;20047;-73
2022/06/21 07:21:18;;;;;;;15.63;6.07;;;15.20;99.90;;;;;;4910280;29;22559;-73
2022/06/21 07:23:45;;;;;;;15.57;5.32;;;15.40;99.90;;;;;;4923326;29;20436;-73
2022/06/21 07:26:22;;;;;;;33.70;23.23;;;15.70;99.90;;;;;;4914659;29;20046;-73
2022/06/21 07:28:58;;;;;;;13.57;6.45;;;16.00;99.90;;;;;;4914729;29;20042;-73
2022/06/21 07:31:29;;;;;;;7.55;4.47;;;16.40;99.90;;;;;;4922922;29;20047;-73
2022/06/21 07:34:00;;;;;;;29.80;7.20;;;16.90;99.90;;;;;;4912779;29;20031;-73
2022/06/21 07:36:36;;;;;;;20.58;6.18;;;17.30;99.90;;;;;;4911728;29;20032;-74
2022/06/21 07:39:09;;;;;;;10.13;5.50;;;17.70;99.90;;;;;;4917179;29;20027;-73
2022/06/21 07:41:50;;;;;;;16.63;4.72;;;18.20;99.90;;;;;;4915091;29;20042;-73
2022/06/21 07:44:25;;;;;;;10.98;5.43;;;18.60;99.90;;;;;;4916807;29;20040;-72
2022/06/21 07:46:56;;;;;;;11.15;3.80;;;19.30;99.90;;;;;;4920010;29;20543;-73
2022/06/21 07:49:30;;;;;;;13.18;5.15;;;19.90;99.90;;;;;;4920168;29;20090;-74
2022/06/21 07:52:01;;;;;;;7.45;4.00;;;20.90;99.90;;;;;;4920803;29;20058;-73
2022/06/21 07:54:37;;;;;;;7.82;4.00;;;22.70;99.90;;;;;;4914847;29;20035;-71
2022/06/21 07:57:09;;;;;;;6.60;3.10;;;24.90;94.80;;;;;;4913389;29;20044;-71
2022/06/21 07:59:44;;;;;;;5.53;2.78;;;25.70;89.50;;;;;;4906151;29;20179;-72
2022/06/21 08:07:48;;;;;;;3.97;1.95;;;27.50;61.50;;;;;;4913556;29;20103;-72
2022/06/21 08:10:38;;;;;;;4.80;1.77;;;27.10;64.90;;;;;;4916564;29;20038;-72
2022/06/21 08:13:04;;;;;;;8.65;2.22;;;27.00;59.30;;;;;;4909364;29;20055;-72
2022/06/21 08:15:41;;;;;;;2.65;1.80;;;28.30;60.90;;;;;;4911894;29;20052;-72
2022/06/21 08:18:15;;;;;;;4.60;2.05;;;29.50;58.30;;;;;;4911640;29;20046;-73
2022/06/21 08:20:48;;;;;;;5.25;1.48;;;30.30;48.90;;;;;;4912286;29;20036;-72
2022/06/21 08:23:22;;;;;;;5.07;1.58;;;32.10;44.40;;;;;;4916304;29;20044;-72
2022/06/21 08:26:03;;;;;;;4.70;1.60;;;33.50;42.60;;;;;;4912645;29;20024;-72
2022/06/21 08:28:53;;;;;;;3.53;1.17;;;33.90;39.10;;;;;;4912968;29;20452;-72
2022/06/21 08:31:30;;;;;;;2.67;1.13;;;34.60;36.00;;;;;;4913821;29;20035;-72
2022/06/21 08:34:19;;;;;;;3.50;1.20;;;34.00;35.00;;;;;;4910117;29;20046;-73
2022/06/21 08:36:55;;;;;;;4.70;1.45;;;33.30;40.20;;;;;;4913562;29;20035;-72
2022/06/21 08:39:38;;;;;;;4.47;1.50;;;32.90;37.90;;;;;;4911849;29;20488;-72
2022/06/21 08:42:19;;;;;;;5.43;2.40;;;32.90;41.10;;;;;;4912540;29;20120;-72
2022/06/21 08:45:40;;;;;;;6.60;1.97;;;31.00;39.20;;;;;;4911568;29;20028;-71
2022/06/21 08:48:20;;;;;;;8.10;1.95;;;30.60;42.70;;;;;;4910929;29;20286;-72
2022/06/21 08:51:23;;;;;;;6.22;2.45;;;30.00;45.80;;;;;;4923749;29;20043;-73
2022/06/21 08:54:08;;;;;;;5.30;2.08;;;29.00;48.10;;;;;;4906887;29;20059;-72
2022/06/21 08:57:00;;;;;;;5.05;2.10;;;28.40;48.80;;;;;;4904012;29;20098;-71
2022/06/21 08:59:47;;;;;;;9.00;2.35;;;28.40;48.80;;;;;;4904950;29;20108;-73
2022/06/21 09:02:34;;;;;;;7.28;2.30;;;27.90;53.60;;;;;;4901806;29;20067;-72
2022/06/21 09:05:11;;;;;;;8.88;2.63;;;27.60;56.20;;;;;;4902275;29;20248;-72
2022/06/21 09:07:55;;;;;;;6.47;2.00;;;26.70;68.70;;;;;;4903186;29;20024;-72
2022/06/21 09:10:57;;;;;;;7.28;2.80;;;26.20;65.00;;;;;;4909758;29;20035;-73
2022/06/21 09:14:10;;;;;;;8.55;2.47;;;25.80;66.10;;;;;;4909464;29;20066;-72
2022/06/21 09:16:42;;;;;;;8.30;2.33;;;25.30;73.40;;;;;;4843881;29;20049;-72
2022/06/21 09:19:22;;;;;;;6.13;2.30;;;25.20;73.70;;;;;;4896485;29;20159;-72
2022/06/21 09:21:49;;;;;;;5.57;2.63;;;24.80;86.70;;;;;;4909117;29;20373;-72
2022/06/21 09:24:31;;;;;;;6.97;2.10;;;24.60;82.50;;;;;;4909993;29;20066;-71
2022/06/21 09:27:04;;;;;;;5.47;2.15;;;24.40;79.70;;;;;;4909191;29;20035;-72
2022/06/21 09:29:54;;;;;;;4.43;2.20;;;24.40;75.90;;;;;;4908945;29;20032;-72
2022/06/21 09:32:41;;;;;;;7.03;2.70;;;23.90;90.00;;;;;;4909325;29;20040;-76
2022/06/21 09:35:31;;;;;;;5.45;2.20;;;23.90;90.10;;;;;;4904769;29;20571;-72
2022/06/21 09:38:09;;;;;;;7.70;2.47;;;24.20;80.60;;;;;;4903043;29;20401;-70
2022/06/21 09:40:46;;;;;;;5.53;2.08;;;24.60;79.00;;;;;;4889777;29;20058;-70
2022/06/21 09:44:00;;;;;;;5.63;2.15;;;24.90;76.60;;;;;;4902142;29;20036;-70
2022/06/21 09:46:46;;;;;;;7.95;2.40;;;24.50;79.50;;;;;;4902026;29;20484;-70
2022/06/21 09:49:31;;;;;;;8.52;2.15;;;24.70;84.80;;;;;;4905177;29;20439;-70
2022/06/21 09:52:14;;;;;;;3.50;1.95;;;24.80;82.70;;;;;;4899945;29;20027;-70
2022/06/21 09:54:50;;;;;;;4.60;1.80;;;24.40;88.10;;;;;;4901431;29;20212;-70
2022/06/21 09:57:38;;;;;;;7.18;2.20;;;24.70;86.60;;;;;;4902603;29;20062;-70
2022/06/21 10:00:16;;;;;;;5.32;1.80;;;25.10;84.80;;;;;;4905392;29;20755;-70
2022/06/21 10:03:16;;;;;;;7.72;2.13;;;25.10;69.90;;;;;;4907553;29;20032;-69
2022/06/21 10:06:04;;;;;;;4.53;1.50;;;25.20;66.50;;;;;;4908904;29;20035;-70
2022/06/21 10:08:50;;;;;;;4.85;1.77;;;25.30;74.70;;;;;;4905291;29;20039;-71
2022/06/21 10:11:53;;;;;;;3.53;1.95;;;25.40;70.80;;;;;;4904417;29;21758;-70
2022/06/21 10:14:25;;;;;;;7.47;1.85;;;25.00;67.80;;;;;;4901229;29;20036;-70
2022/06/21 10:17:11;;;;;;;4.40;1.55;;;25.10;70.50;;;;;;4904310;29;20066;-70
2022/06/21 10:19:45;;;;;;;3.70;1.40;;;25.00;71.80;;;;;;4911679;29;20040;-70
2022/06/21 10:22:35;;;;;;;3.88;1.45;;;25.20;61.20;;;;;;4900511;29;20277;-70
2022/06/21 10:25:25;;;;;;;3.25;1.50;;;24.90;58.50;;;;;;4903076;29;20039;-71
2022/06/21 10:28:10;;;;;;;3.95;1.38;;;25.10;62.40;;;;;;4909047;29;20036;-70
2022/06/21 10:31:06;;;;;;;4.53;1.50;;;25.20;65.90;;;;;;4912604;29;20527;-71
2022/06/21 10:33:50;;;;;;;2.90;1.25;;;26.10;63.10;;;;;;4914622;29;20114;-72
2022/06/21 10:36:27;;;;;;;2.65;1.23;;;26.50;68.40;;;;;;4919249;29;20036;-71
2022/06/21 10:39:05;;;;;;;2.75;0.93;;;26.00;53.50;;;;;;4901404;29;20028;-70
2022/06/21 10:44:48;;;;;;;4.63;1.45;;;26.90;58.70;;;;;;4919065;29;20091;-70
2022/06/21 10:47:35;;;;;;;3.22;1.45;;;27.10;58.70;;;;;;4920886;29;20024;-70
2022/06/21 10:50:31;;;;;;;3.92;1.45;;;27.00;52.20;;;;;;4906623;29;20036;-70
2022/06/21 10:53:13;;;;;;;2.92;1.20;;;27.30;55.20;;;;;;4907251;29;20158;-71
2022/06/21 10:55:46;;;;;;;3.47;1.25;;;27.30;46.10;;;;;;4906714;29;20031;-70
2022/06/21 10:59:00;;;;;;;5.40;1.23;;;27.40;49.70;;;;;;4909722;29;20043;-70
2022/06/21 11:01:32;;;;;;;3.85;1.10;;;27.30;51.00;;;;;;4885478;29;20049;-70
2022/06/21 11:04:22;;;;;;;2.17;1.33;;;27.40;50.20;;;;;;4889770;29;20192;-70
2022/06/21 11:06:59;;;;;;;5.13;1.33;;;27.20;47.50;;;;;;4908719;29;20289;-70
2022/06/21 11:09:29;;;;;;;4.22;1.20;;;27.40;52.60;;;;;;4917482;29;20035;-71
2022/06/21 11:15:11;;;;;;;2.22;1.00;;;27.00;50.20;;;;;;4908472;29;20110;-70
2022/06/21 11:17:55;;;;;;;2.67;1.30;;;26.40;50.50;;;;;;4898638;29;20047;-70
2022/06/21 11:20:38;;;;;;;2.33;1.20;;;27.10;53.10;;;;;;4904362;29;20035;-70
2022/06/21 11:23:06;;;;;;;1.92;1.20;;;27.30;51.70;;;;;;4911529;29;20325;-70
2022/06/21 11:26:14;;;;;;;1.98;0.77;;;27.00;50.10;;;;;;4901852;29;20043;-70
2022/06/21 11:28:46;;;;;;;2.97;1.40;;;27.10;41.40;;;;;;4903129;29;20116;-71
2022/06/21 11:31:40;;;;;;;1.67;1.20;;;26.80;48.00;;;;;;4914895;29;20068;-71
2022/06/21 11:34:20;;;;;;;1.75;1.42;;;26.70;46.90;;;;;;4916758;29;20371;-71
2022/06/21 11:36:55;;;;;;;3.00;0.90;;;26.40;50.70;;;;;;4919020;29;20044;-71
2022/06/21 11:39:33;;;;;;;3.22;1.23;;;26.70;47.70;;;;;;4914026;29;20282;-71
2022/06/21 11:42:04;;;;;;;2.17;1.10;;;26.50;53.40;;;;;;4923142;29;20047;-71
2022/06/21 11:45:03;;;;;;;1.45;1.10;;;26.70;49.80;;;;;;4916851;29;20024;-71
2022/06/21 11:47:29;;;;;;;5.32;1.55;;;26.50;53.10;;;;;;4925674;29;20059;-71
2022/06/21 11:50:20;;;;;;;5.18;1.65;;;26.40;51.10;;;;;;4921466;29;20036;-71
2022/06/21 11:52:52;;;;;;;3.17;1.50;;;26.50;55.50;;;;;;4908595;29;20040;-72
2022/06/21 11:55:20;;;;;;;3.65;1.50;;;26.30;50.40;;;;;;4908643;29;20036;-72
2022/06/21 11:58:02;;;;;;;5.28;1.33;;;26.20;47.00;;;;;;4908441;29;20044;-71
2022/06/21 12:00:44;;;;;;;3.17;1.63;;;26.60;55.70;;;;;;4908214;29;20036;-72
2022/06/21 12:03:26;;;;;;;3.85;1.02;;;26.70;47.60;;;;;;4908576;29;20616;-71
2022/06/21 12:05:57;;;;;;;3.00;1.10;;;26.60;49.60;;;;;;4907920;29;20064;-71
2022/06/21 12:08:34;;;;;;;3.78;1.15;;;26.90;46.90;;;;;;4915168;29;20028;-72
2022/06/21 12:11:24;;;;;;;4.85;1.65;;;26.40;44.50;;;;;;4925792;29;20028;-71
2022/06/21 12:14:35;;;;;;;6.18;1.50;;;26.40;46.80;;;;;;4920156;29;20054;-71
2022/06/21 12:17:33;;;;;;;4.80;1.50;;;26.10;51.80;;;;;;4909274;29;20165;-71
2022/06/21 12:20:05;;;;;;;2.80;1.33;;;25.80;56.10;;;;;;4910638;29;20071;-71
2022/06/21 12:22:40;;;;;;;2.55;1.38;;;26.10;61.70;;;;;;4919933;29;20167;-71
2022/06/21 12:25:11;;;;;;;3.90;1.38;;;26.10;55.50;;;;;;4919889;29;20062;-71
2022/06/21 12:27:36;;;;;;;7.57;2.00;;;26.40;60.80;;;;;;4925375;29;20020;-71
2022/06/21 12:30:21;;;;;;;3.83;1.55;;;26.20;52.90;;;;;;4924284;29;20047;-72
2022/06/21 12:32:50;;;;;;;4.38;1.70;;;26.40;48.00;;;;;;4920611;29;20110;-71
2022/06/21 12:35:19;;;;;;;2.85;1.25;;;26.40;55.20;;;;;;4925260;29;20062;-71
2022/06/21 12:37:54;;;;;;;2.13;1.63;;;26.10;51.40;;;;;;4926264;29;20535;-71
2022/06/21 12:40:33;;;;;;;3.53;1.63;;;26.00;50.50;;;;;;4925563;29;20043;-71
2022/06/21 12:43:35;;;;;;;3.30;1.35;;;25.80;55.00;;;;;;4923371;29;20613;-71
2022/06/21 12:46:06;;;;;;;2.83;1.38;;;25.90;55.10;;;;;;4912981;29;20058;-72
2022/06/21 12:48:47;;;;;;;4.40;1.48;;;25.80;53.80;;;;;;4911701;29;20107;-71
2022/06/21 12:51:18;;;;;;;2.53;1.15;;;25.60;53.70;;;;;;4914988;29;20163;-71
2022/06/21 12:54:06;;;;;;;4.97;1.58;;;25.70;55.60;;;;;;4915501;29;20044;-71
2022/06/21 12:56:47;;;;;;;4.28;1.50;;;25.60;51.80;;;;;;4916757;29;20032;-71
2022/06/21 12:59:33;;;;;;;1.85;1.13;;;25.40;53.60;;;;;;4914373;29;20403;-71
2022/06/21 13:01:59;;;;;;;4.78;1.75;;;25.30;56.80;;;;;;4924281;29;20039;-71
2022/06/21 13:04:28;;;;;;;1.67;1.38;;;25.20;53.60;;;;;;4917749;29;20040;-71
2022/06/21 13:07:14;;;;;;;5.88;1.58;;;25.10;61.90;;;;;;4913261;29;20020;-71
2022/06/21 13:10:26;;;;;;;2.47;1.45;;;24.80;60.20;;;;;;4711277;28;10000601;-71
2022/06/21 13:13:22;;;;;;;4.75;1.70;;;25.10;66.90;;;;;;4924637;29;20231;-71
2022/06/21 13:16:15;;;;;;;3.88;1.50;;;25.00;64.00;;;;;;4923404;29;20051;-71
2022/06/21 13:18:53;;;;;;;5.82;1.85;;;25.00;56.40;;;;;;4907224;29;20044;-71
2022/06/21 13:21:42;;;;;;;4.97;1.58;;;25.00;62.40;;;;;;4923060;29;20099;-71
2022/06/21 13:25:11;;;;;;;2.83;1.55;;;24.70;60.00;;;;;;4925562;29;20119;-71
2022/06/21 13:28:09;;;;;;;4.28;1.40;;;24.70;64.20;;;;;;4876771;29;20040;-71
2022/06/21 13:30:40;;;;;;;3.63;1.67;;;24.70;63.60;;;;;;4906844;29;20073;-71
2022/06/21 13:33:14;;;;;;;;;;;24.60;67.60;;;;;;4916734;29;20059;-71
2022/06/21 13:35:49;;;;;;;3.03;2.05;;;24.60;62.00;;;;;;4913669;29;20555;-71
2022/06/21 13:38:37;;;;;;;3.63;1.58;;;24.60;71.30;;;;;;4918655;29;20054;-70
2022/06/21 13:41:03;;;;;;;2.88;1.73;;;24.60;58.90;;;;;;4906955;29;20029;-71
2022/06/21 13:43:38;;;;;;;5.00;1.63;;;24.50;59.60;;;;;;4913584;29;20034;-71
2022/06/21 13:46:21;;;;;;;4.57;1.75;;;24.20;58.00;;;;;;4922634;29;20487;-71
2022/06/21 13:48:56;;;;;;;2.22;1.35;;;24.10;55.60;;;;;;4925627;29;20054;-71
2022/06/21 13:51:43;;;;;;;3.38;1.42;;;24.40;72.30;;;;;;4910347;29;20024;-71
2022/06/21 13:54:31;;;;;;;5.30;1.75;;;24.50;73.00;;;;;;4906485;29;20119;-71
2022/06/21 13:57:06;;;;;;;4.22;1.55;;;24.40;57.60;;;;;;4922581;29;20523;-71